ADDS METAR Data INFO
IDs: Format: Raw Decoded Include TAF

Data at: 0937 UTC 17 Oct 2017

PAGH 170930Z AUTO 06004KT 1/2SM FZFG SCT001 OVC050 M03/M03 A2957 RMK AO2 FZRANO
PAGH 170923Z AUTO 05004KT 1/2SM FZFG OVC050 M03/M03 A2957 RMK AO2 FZRANO
PAGH 170913Z AUTO 08003KT 3/4SM BR OVC050 M03/M03 A2958 RMK AO2 FZRANO
PAGH 170908Z AUTO 06003KT 1 3/4SM BR OVC050 M03/M03 A2958 RMK AO2 FZRANO
PAGH 170856Z AUTO 00000KT 10SM OVC050 M03/M03 A2958 RMK AO2 SLP021 T10281033 400061028 58003 FZRANO
PAGH 170854Z AUTO 00000KT 10SM OVC050 M03/M03 A2958 RMK AO2 400061028 FZRANO
PAGH 170847Z AUTO 00000KT 2 1/2SM BR FEW001 OVC050 M03/M03 A2958 RMK AO2 FZRANO
PAGH 170844Z AUTO 00000KT 1SM BR FEW001 OVC050 M03/M03 A2958 RMK AO2 FZRANO
PAGH 170837Z AUTO 00000KT 1/2SM FZFG SCT001 OVC050 M03/M03 A2958 RMK AO2 FZRANO
PAGH 170822Z AUTO 00000KT 1/4SM FZFG OVC001 M02/M03 A2958 RMK AO2 FZRANO
PAGH 170756Z AUTO 00000KT 1/4SM FZFG OVC003 M02/M03 A2959 RMK AO2 SLP024 T10221028 FZRANO
PAGH 170752Z AUTO 00000KT 1/4SM FZFG OVC003 M02/M03 A2959 RMK AO2 FZRANO
PAGH 170730Z AUTO 00000KT 1/2SM FZFG OVC003 M02/M03 A2959 RMK AO2 FZRANO
PAGH 170656Z AUTO 00000KT 1/4SM FZFG OVC003 M03/M03 A2959 RMK AO2 SLP028 T10281028 FZRANO
PAGH 170612Z AUTO 00000KT 1/2SM FZFG BKN003 OVC060 M02/M03 A2959 RMK AO2 FZRANO
PAGH 170606Z AUTO 00000KT 1SM BR BKN003 OVC060 M02/M03 A2960 RMK AO2 VIS 1/2V2 1/2 FZRANO
PAGH 170601Z AUTO 00000KT 2 1/2SM BR BKN003 OVC060 M02/M03 A2959 RMK AO2 VIS 1 1/4V5 FZRANO
PAGH 170556Z AUTO 00000KT 10SM SCT003 OVC060 M02/M03 A2960 RMK AO2 SLP029 60000 T10221028 10000 21022 56005 FZRANO
PAGH 170523Z AUTO 00000KT 10SM SCT005 BKN060 M02/M03 A2960 RMK AO2 FZRANO
PAGH 170505Z AUTO 21003KT 10SM BKN005 OVC055 M02/M02 A2960 RMK AO2 FZRANO
PAGH 170456Z AUTO 23004KT 10SM SCT005 OVC055 M02/M02 A2960 RMK AO2 SLP029 T10171022 FZRANO
PAGH 170356Z AUTO 00000KT 10SM SCT006 SCT030 OVC060 M02/M02 A2960 RMK AO2 UPE07 SLP030 P0000 T10171022 FZRANO
PAGH 170349Z AUTO 00000KT 10SM BKN006 BKN030 OVC060 M02/M02 A2960 RMK AO2 UPE07 P0000 FZRANO
PAGH 170314Z AUTO 31003KT 10SM FEW006 OVC065 M01/M02 A2961 RMK AO2 UPE07 P0000 FZRANO
PAGH 170256Z AUTO 32003KT 10SM UP FEW035 BKN065 M01/M02 A2961 RMK AO2 UPB47 SLP034 P0000 60000 T10111022 56006 FZRANO
PAGH 170156Z AUTO 00000KT 10SM SCT006 BKN033 OVC070 M01/M02 A2961 RMK AO2 UPB11E20 SLP035 P0000 T10061022 FZRANO
PAGH 170056Z AUTO 00000KT 10SM OVC006 00/M02 A2962 RMK AO2 SLP038 T00001017 FZRANO
PAGH 170034Z AUTO 00000KT 10SM OVC006 00/M02 A2963 RMK AO2 FZRANO
PAGH 162356Z AUTO 00000KT 10SM OVC004 00/M02 A2963 RMK AO2 SLP040 60001 T00001017 10006 21022 58002 FZRANO
PAGH 162256Z AUTO 00000KT 10SM BKN004 OVC060 00/M02 A2963 RMK AO2 UPE17B37E56 SLP041 P0000 T00001017 FZRANO
PAGH 162254Z AUTO 00000KT 10SM UP BKN004 OVC060 00/M02 A2963 RMK AO2 UPE17B37 P0000 FZRANO
PAGH 162156Z AUTO 00000KT 10SM UP SCT004 BKN030 BKN070 M01/M02 A2963 RMK AO2 UPE17B45 SLP041 P0000 T10061022 FZRANO
PAGH 162106Z AUTO 00000KT 10SM BKN004 BKN030 OVC035 00/M01 A2963 RMK AO2 UPE04 P0000 FZRANO
PAGH 162041Z AUTO 00000KT 9SM UP SCT004 OVC039 M01/M02 A2963 RMK AO2 UPB39SNE39 P0000 FZRANO
PAGH 162034Z AUTO 00000KT 5SM -SN BR SCT004 BKN028 OVC041 M01/M02 A2963 RMK AO2 P0000 FZRANO
PAGH 162028Z AUTO 00000KT 2 1/2SM -SN BR BKN004 BKN028 OVC041 M01/M02 A2963 RMK AO2 VIS 1 1/2V5 CIG 003V010 P0000 FZRANO
PAGH 162019Z AUTO 00000KT 2 1/2SM -SN BR BKN006 BKN011 OVC028 M01/M02 A2963 RMK AO2 VIS 1 1/4V5 CIG 003V007 P0000 FZRANO
PAGH 162014Z AUTO 00000KT 5SM -SN BR SCT006 BKN011 OVC028 M01/M02 A2963 RMK AO2 P0000 FZRANO
PAGH 162008Z AUTO 00000KT 3SM -SN BR SCT011 BKN017 OVC030 M01/M02 A2963 RMK AO2 P0000 FZRANO
PAGH 162006Z AUTO 00000KT 2SM -SN BR SCT010 BKN017 OVC030 M01/M02 A2963 RMK AO2 VIS 1V5 P0000 FZRANO
PAGH 162003Z AUTO 00000KT 1 1/2SM -SN BR BKN010 BKN017 OVC030 M01/M02 A2963 RMK AO2 P0000 FZRANO
PAGH 161956Z AUTO 00000KT 1SM -SN BR BKN012 OVC019 M01/M02 A2963 RMK AO2 SLP040 P0001 T10111022 FZRANO
PAGH 161952Z AUTO 00000KT 1SM -SN BR BKN014 BKN019 OVC029 M01/M02 A2963 RMK AO2 P0000 FZRANO
PAGH 161948Z AUTO 00000KT 3/4SM -SN BR SCT012 BKN019 OVC027 M01/M02 A2963 RMK AO2 P0000 FZRANO
PAGH 161941Z AUTO 00000KT 1SM -SN BR BKN014 BKN025 OVC030 M01/M02 A2963 RMK AO2 P0000 FZRANO
PAGH 161905Z AUTO 00000KT 1 1/4SM -SN BR SCT014 OVC022 M02/M03 A2963 RMK AO2 P0000 FZRANO
PAGH 161856Z AUTO 00000KT 2SM -SN BR OVC022 M02/M03 A2963 RMK AO2 VIS 1 1/2V3 SLP038 P0000 T10171028 FZRANO
PAGH 161839Z AUTO 00000KT 2 1/2SM -SN BR SCT012 OVC020 M02/M03 A2963 RMK AO2 P0000 FZRANO
PAGH 161811Z AUTO 00000KT 2SM -SN BR BKN012 OVC028 M02/M03 A2963 RMK AO2 P0000 FZRANO
PAGH 161756Z AUTO 00000KT 4SM -SN BR FEW012 BKN028 M02/M03 A2962 RMK AO2 SLP037 P0000 60000 T10221028 11017 21022 56001 FZRANO
PAGH 161737Z AUTO 00000KT 4SM -SN BR OVC028 M02/M03 A2962 RMK AO2 P0000 FZRANO
PAGH 161705Z AUTO 00000KT 3SM -SN BR SCT017 BKN030 M02/M03 A2962 RMK AO2 P0000 FZRANO
PAGH 161656Z AUTO 00000KT 2 1/2SM -SN BR BKN017 BKN030 M02/M03 A2963 RMK AO2 VIS 1 1/2V5 SLP038 P0000 T10221033 FZRANO
PAGH 161638Z AUTO 09003KT 2 1/2SM -SN BR OVC015 M02/M03 A2963 RMK AO2 P0000 FZRANO
PAGH 161556Z AUTO 12005KT 9SM -SN OVC012 M02/M03 A2962 RMK AO2 SLP037 P0000 T10221033 FZRANO
PAGH 161456Z AUTO 11004KT 9SM -SN OVC014 M02/M03 A2963 RMK AO2 SLP039 P0000 60000 T10171033 56002 FZRANO
PAGH 161444Z AUTO 10004KT 9SM -SN OVC014 M02/M03 A2963 RMK AO2 P0000 FZRANO
PAGH 161407Z AUTO 11007KT 9SM -SN SCT013 OVC019 M02/M03 A2963 RMK AO2 P0000 FZRANO
PAGH 161356Z AUTO 11005KT 9SM -SN BKN013 OVC019 M02/M03 A2963 RMK AO2 SLP040 P0000 T10221033 FZRANO
PAGH 161256Z AUTO 10005KT 9SM -SN OVC019 M02/M03 A2963 RMK AO2 SLP040 P0000 T10221033 FZRANO
PAGH 161156Z AUTO 11005KT 9SM -SN BKN019 OVC065 M02/M03 A2963 RMK AO2 SNB14 SLP040 P0000 60000 T10221033 11017 21022 58001 FZRANO
PAGH 161148Z AUTO 11006KT 9SM -SN BKN019 OVC065 M02/M03 A2963 RMK AO2 SNB14 P0000 FZRANO
PAGH 161103Z AUTO 11007KT 10SM SCT019 OVC060 M02/M03 A2964 RMK AO2 FZRANO
PAGH 161056Z AUTO 10006KT 10SM BKN019 OVC065 M02/M03 A2964 RMK AO2 SLP042 T10221033 FZRANO
PAGH 160956Z AUTO 11005KT 10SM OVC019 M02/M03 A2964 RMK AO2 SNE34 SLP045 P0000 T10221033 FZRANO
PAGH 160856Z AUTO 12007KT 9SM -SN BKN019 BKN055 M02/M03 A2964 RMK AO2 SLP042 P0000 60000 T10171028 410061050 51004 FZRANO
PAGH 160756Z AUTO 10006KT 9SM -SN BKN019 OVC024 M02/ A2963 RMK AO2 SNB0657 SLP041 P0000 T1017 FZRANO
PAGH 160656Z AUTO 11005KT 10SM OVC021 M02/M03 A2963 RMK AO2 SNE44 SLP040 P0000 T10171028 FZRANO
PAGH 160619Z AUTO 12007KT 7SM -SN BKN025 OVC030 M02/M03 A2963 RMK AO2 P0000 FZRANO
PAGH 160556Z AUTO 10005KT 9SM -SN OVC030 M02/M03 A2962 RMK AO2 SNB00 SLP038 P0000 60000 T10171028 11006 21017 53001 FZRANO
PAGH 160456Z AUTO 12004KT 10SM OVC032 M02/M03 A2962 RMK AO2 SLP037 T10171028 FZRANO
PAGH 160409Z AUTO 12003KT 10SM SCT027 SCT032 M02/M03 A2962 RMK AO2 FZRANO
PAGH 160356Z AUTO 12003KT 10SM BKN027 M02/M03 A2962 RMK AO2 SLP037 T10171033 FZRANO
PAGH 160256Z AUTO 11007KT 10SM OVC027 M01/M03 A2962 RMK AO2 SLP037 T10111028 56005 FZRANO
PAGH 160156Z AUTO 09006KT 10SM OVC027 M01/M03 A2962 RMK AO2 SLP038 T10061028 FZRANO
PAGH 160056Z AUTO 11009KT 10SM OVC027 M01/M03 A2963 RMK AO2 SLP040 T10111028 FZRANO
PAGH 152256Z AUTO 12008KT 10SM OVC027 M02/M03 A2964 RMK AO2 SLP045 T10171028 FZRANO
PAGH 152156Z AUTO 12009KT 10SM OVC025 M03/M03 A2965 RMK AO2 SLP047 T10281033 FZRANO